Time;durP1;ratioP1;P1;durP2;ratioP2;P2;SDS_P1;SDS_P2;PMS_P1;PMS_P2;Temp;Humidity;BMP_temperature;BMP_pressure;BME280_temperature;BME280_humidity;BME280_pressure;Samples;Min_cycle;Max_cycle;Signal;HPM_P1;HPM_P2
2023/10/22 00:02:19;;;;;;;60.43;3.80;;;;;;;23.20;54.98;98392.09;7315454;19;129694;-36
2023/10/22 00:04:45;;;;;;;85.88;4.93;;;;;;;23.16;55.57;98392.66;7314112;19;129418;-34
2023/10/22 00:07:12;;;;;;;53.03;3.13;;;;;;;23.15;55.81;98398.91;7320063;19;128918;-34
2023/10/22 00:09:38;;;;;;;104.72;5.93;;;;;;;23.11;55.85;98398.44;7312932;19;130776;-34
2023/10/22 00:12:03;;;;;;;91.27;5.23;;;;;;;23.11;55.63;98403.69;7306607;19;130180;-35
2023/10/22 00:14:28;;;;;;;71.93;3.87;;;;;;;23.14;56.52;98412.97;7320813;19;129131;-36
2023/10/22 00:16:54;;;;;;;66.25;3.80;;;;;;;23.08;56.30;98414.53;7321790;19;129435;-34
2023/10/22 00:19:19;;;;;;;83.57;5.03;;;;;;;23.14;55.76;98426.91;7308645;19;130444;-33
2023/10/22 00:21:46;;;;;;;30.07;2.03;;;;;;;23.14;56.79;98439.19;7313456;19;129514;-34
2023/10/22 00:24:11;;;;;;;;;;;;;;;22.98;55.93;98413.94;7313424;19;130509;-35
2023/10/22 00:26:37;;;;;;;28.92;1.95;;;;;;;23.09;52.42;98428.41;7316432;19;128858;-35
2023/10/22 00:29:03;;;;;;;108.17;6.00;;;;;;;23.18;52.59;98424.75;7312079;19;129229;-34
2023/10/22 00:31:28;;;;;;;16.52;1.23;;;;;;;23.26;51.74;98422.03;7312691;19;129177;-36
2023/10/22 00:33:53;;;;;;;96.87;4.83;;;;;;;23.33;51.39;98417.75;7312708;19;129780;-34
2023/10/22 00:36:19;;;;;;;55.70;3.33;;;;;;;23.36;52.00;98414.78;7315631;19;128799;-34
2023/10/22 00:38:44;;;;;;;39.20;2.43;;;;;;;23.29;52.94;98416.47;7304165;19;131886;-36
2023/10/22 00:41:09;;;;;;;8.63;1.00;;;;;;;23.24;54.03;98413.53;7312724;19;129075;-34
2023/10/22 00:43:35;;;;;;;78.90;4.23;;;;;;;23.19;55.41;98406.22;7311754;19;130155;-36
2023/10/22 00:46:02;;;;;;;31.17;2.00;;;;;;;23.15;56.01;98397.06;7316285;19;128926;-36
2023/10/22 00:48:28;;;;;;;55.85;3.63;;;;;;;23.13;56.51;98400.88;7311331;19;128890;-35
2023/10/22 00:50:53;;;;;;;44.00;2.70;;;;;;;23.14;55.98;98408.56;7309428;19;129315;-35
2023/10/22 00:53:19;;;;;;;81.82;4.55;;;;;;;22.99;56.48;98380.69;7315598;19;129063;-36
2023/10/22 00:55:46;;;;;;;31.27;2.13;;;;;;;23.11;56.50;98402.84;7314071;19;129325;-35
2023/10/22 00:58:15;;;;;;;;;;;;;;;23.14;57.45;98407.72;7311176;19;130223;-36
2023/10/22 01:00:41;;;;;;;30.45;1.95;;;;;;;23.12;56.31;98412.38;7311578;19;130262;-35
2023/10/22 01:03:06;;;;;;;101.47;5.47;;;;;;;23.07;56.91;98406.84;7310868;19;130195;-35
2023/10/22 01:05:35;;;;;;;31.87;2.13;;;;;;;23.11;56.54;98415.97;7315513;19;129711;-35
2023/10/22 01:08:02;;;;;;;33.97;2.20;;;;;;;23.09;55.23;98424.00;7312153;19;128990;-36
2023/10/22 01:10:27;;;;;;;66.28;3.90;;;;;;;23.06;52.38;98427.00;7301453;19;132800;-35
2023/10/22 01:12:52;;;;;;;84.63;4.37;;;;;;;23.14;51.85;98433.94;7313857;19;129396;-35
2023/10/22 01:15:18;;;;;;;45.73;2.63;;;;;;;23.22;51.33;98434.69;7314691;19;129206;-36
2023/10/22 01:17:43;;;;;;;44.57;2.77;;;;;;;23.25;51.09;98436.16;7311092;19;129310;-36
2023/10/22 01:20:09;;;;;;;62.40;3.47;;;;;;;23.35;51.75;98430.69;7312574;19;130457;-36
2023/10/22 01:22:35;;;;;;;59.53;3.27;;;;;;;23.27;52.36;98423.69;7309983;19;130345;-34
2023/10/22 01:25:00;;;;;;;28.40;1.95;;;;;;;23.22;52.63;98415.56;7314855;19;129004;-34
2023/10/22 01:27:26;;;;;;;33.43;2.33;;;;;;;23.20;54.12;98412.28;7310393;19;129938;-36
2023/10/22 01:29:51;;;;;;;70.10;3.57;;;;;;;23.17;54.03;98410.03;7310118;19;130227;-34
2023/10/22 01:32:16;;;;;;;57.42;3.22;;;;;;;23.16;54.45;98416.25;7311728;19;130555;-34
2023/10/22 01:34:42;;;;;;;29.43;1.80;;;;;;;23.14;54.67;98421.66;7313874;19;129219;-36
2023/10/22 01:37:07;;;;;;;57.80;3.43;;;;;;;23.12;54.62;98420.22;7312193;19;129267;-34
2023/10/22 01:39:32;;;;;;;60.97;3.27;;;;;;;22.97;55.17;98407.06;7312476;19;130223;-34
2023/10/22 01:41:58;;;;;;;35.43;2.13;;;;;;;23.03;54.70;98416.03;7308581;19;129429;-36
2023/10/22 01:44:23;;;;;;;54.00;3.10;;;;;;;23.10;55.55;98435.31;7312844;19;129174;-35
2023/10/22 01:46:49;;;;;;;37.37;2.30;;;;;;;23.00;55.04;98429.50;7312444;19;129085;-36
2023/10/22 01:49:14;;;;;;;75.67;3.90;;;;;;;23.07;55.23;98449.56;7311617;19;131182;-33
2023/10/22 01:51:39;;;;;;;28.23;1.57;;;;;;;23.08;55.33;98455.66;7310145;19;130088;-35
2023/10/22 01:54:06;;;;;;;27.57;1.73;;;;;;;22.97;53.41;98464.72;7307992;19;129666;-35
2023/10/22 01:56:31;;;;;;;;;;;;;;;23.05;52.23;98469.09;7313134;19;129295;-35
2023/10/22 01:58:57;;;;;;;92.72;5.15;;;;;;;23.04;52.15;98443.88;7308867;19;130419;-36
2023/10/22 02:01:22;;;;;;;42.43;2.63;;;;;;;23.22;50.92;98468.78;7310546;19;129575;-36
2023/10/22 02:03:48;;;;;;;43.33;2.38;;;;;;;23.24;51.74;98461.56;7298775;19;130694;-35
2023/10/22 02:06:14;;;;;;;52.73;3.03;;;;;;;23.28;52.08;98461.22;7313218;19;129419;-33
2023/10/22 02:08:40;;;;;;;67.43;3.50;;;;;;;23.18;52.25;98456.22;7310916;19;131029;-35
2023/10/22 02:11:06;;;;;;;36.88;2.17;;;;;;;23.04;52.91;98441.25;7311055;19;129275;-35
2023/10/22 02:13:31;;;;;;;36.38;2.28;;;;;;;23.14;53.57;98452.31;7311777;19;129502;-37
2023/10/22 02:15:57;;;;;;;61.07;3.33;;;;;;;23.10;54.50;98451.88;7306817;19;128965;-36
2023/10/22 02:18:22;;;;;;;70.70;3.90;;;;;;;23.07;54.34;98452.19;7310068;19;129828;-36
2023/10/22 02:20:59;;;;;;;52.07;3.13;;;;;;;23.08;55.14;98450.41;7310041;19;129291;-34
2023/10/22 02:23:25;;;;;;;53.78;3.15;;;;;;;23.07;54.49;98448.78;7309393;19;129918;-34
2023/10/22 02:25:51;;;;;;;27.40;1.90;;;;;;;23.06;54.89;98434.03;7312107;19;129160;-35
2023/10/22 02:28:17;;;;;;;80.77;4.30;;;;;;;22.97;55.33;98432.47;7310569;19;131010;-35
2023/10/22 02:30:43;;;;;;;37.10;2.22;;;;;;;23.04;54.79;98449.94;7310201;19;130364;-33
2023/10/22 02:33:08;;;;;;;31.60;2.10;;;;;;;23.05;55.10;98450.75;7312199;19;128949;-34
2023/10/22 02:35:40;;;;;;;73.73;3.77;;;;;;;23.04;56.38;98446.50;7311077;19;129211;-34
2023/10/22 02:38:07;;;;;;;83.90;4.57;;;;;;;23.00;55.33;98440.00;7309503;19;130034;-35
2023/10/22 02:40:35;;;;;;;47.95;2.60;;;;;;;22.99;52.62;98447.03;7307537;19;129322;-33
2023/10/22 02:43:02;;;;;;;27.70;1.90;;;;;;;23.06;51.55;98452.38;7309989;19;129343;-34
2023/10/22 02:45:27;;;;;;;;;;;;;;;23.13;51.59;98446.28;7311292;19;129580;-33
2023/10/22 02:47:53;;;;;;;86.43;4.43;;;;;;;23.17;51.21;98442.28;7309674;19;129043;-36
2023/10/22 02:50:18;;;;;;;34.53;2.10;;;;;;;23.24;51.68;98445.00;7309742;19;129531;-37
2023/10/22 02:52:43;;;;;;;44.83;2.53;;;;;;;23.19;52.36;98442.09;7309538;19;130040;-36
2023/10/22 02:55:09;;;;;;;34.13;1.93;;;;;;;23.14;52.62;98442.63;7311799;19;128995;-34
2023/10/22 02:57:34;;;;;;;93.43;4.93;;;;;;;23.07;53.98;98438.28;7309049;19;129136;-37
2023/10/22 02:59:59;;;;;;;39.67;2.22;;;;;;;23.10;54.36;98449.25;7310693;19;131408;-35
2023/10/22 03:02:25;;;;;;;47.90;2.93;;;;;;;23.10;54.45;98448.44;7308752;19;129065;-34
2023/10/22 03:04:50;;;;;;;56.37;3.07;;;;;;;23.08;54.35;98450.41;7311476;19;128796;-34
2023/10/22 03:07:15;;;;;;;65.33;3.33;;;;;;;23.06;55.06;98453.19;7309435;19;129020;-34
2023/10/22 03:09:41;;;;;;;26.90;1.70;;;;;;;23.01;55.22;98452.91;7309456;19;130719;-34
2023/10/22 03:12:06;;;;;;;29.30;1.77;;;;;;;22.94;54.96;98440.69;7304919;19;129578;-35
2023/10/22 03:14:32;;;;;;;70.40;3.57;;;;;;;23.04;55.10;98451.72;7308606;19;129375;-34
2023/10/22 03:16:57;;;;;;;46.53;2.57;;;;;;;23.02;55.45;98458.97;7310757;19;129015;-35
2023/10/22 03:19:22;;;;;;;33.90;2.20;;;;;;;23.01;55.29;98462.56;7305584;19;130350;-35
2023/10/22 03:21:48;;;;;;;72.70;3.97;;;;;;;23.01;55.13;98470.44;7307665;19;129222;-35
2023/10/22 03:24:15;;;;;;;106.22;5.90;;;;;;;22.91;53.13;98475.09;7299258;19;130603;-36
2023/10/22 03:26:41;;;;;;;107.50;5.90;;;;;;;22.98;52.13;98483.91;7294414;19;131233;-36
2023/10/22 03:29:06;;;;;;;81.97;4.63;;;;;;;23.08;51.31;98487.09;7293603;19;131293;-35
2023/10/22 03:31:33;;;;;;;29.57;1.90;;;;;;;23.15;50.95;98488.03;7302472;19;129750;-36
2023/10/22 03:33:58;;;;;;;79.60;3.92;;;;;;;23.20;50.85;98490.94;7310232;19;129063;-35
2023/10/22 03:36:24;;;;;;;59.97;3.40;;;;;;;23.11;52.25;98468.41;7309745;19;129150;-32
2023/10/22 03:38:49;;;;;;;70.17;4.00;;;;;;;23.17;52.35;98488.69;7307111;19;130114;-35
2023/10/22 03:41:14;;;;;;;27.43;1.63;;;;;;;23.11;52.89;98497.22;7307846;19;129522;-32
2023/10/22 03:43:40;;;;;;;44.70;2.43;;;;;;;23.07;54.19;98490.72;7307676;19;130277;-34
2023/10/22 03:46:05;;;;;;;43.93;2.47;;;;;;;23.09;53.99;98499.22;7310843;19;130101;-35
2023/10/22 03:48:32;;;;;;;39.78;2.45;;;;;;;23.03;54.36;98495.50;7308589;19;129690;-36
2023/10/22 03:50:57;;;;;;;49.05;2.88;;;;;;;23.03;54.73;98502.53;7306037;19;129966;-36
2023/10/22 03:53:23;;;;;;;72.33;3.63;;;;;;;23.03;54.41;98500.75;7311381;19;129406;-35
2023/10/22 03:55:49;;;;;;;18.70;1.20;;;;;;;23.04;55.01;98497.13;7317171;19;130518;-35
2023/10/22 03:58:15;;;;;;;46.08;2.63;;;;;;;23.01;54.89;98501.91;7311950;19;131334;-34
2023/10/22 04:00:40;;;;;;;49.73;2.50;;;;;;;23.01;54.73;98504.53;7314271;19;129293;-35
2023/10/22 04:03:05;;;;;;;63.53;3.30;;;;;;;22.97;54.88;98509.28;7314158;19;129200;-35
2023/10/22 04:05:31;;;;;;;81.83;4.93;;;;;;;22.86;55.70;98482.66;7314940;19;129407;-35
2023/10/22 04:07:56;;;;;;;122.07;6.87;;;;;;;22.99;55.42;98503.91;7312370;19;131130;-35
2023/10/22 04:10:21;;;;;;;66.63;3.35;;;;;;;22.95;52.15;98513.09;7314452;19;129340;-35
2023/10/22 04:12:47;;;;;;;53.73;2.70;;;;;;;23.06;51.87;98510.06;7316734;19;129737;-34
2023/10/22 04:15:12;;;;;;;39.40;2.13;;;;;;;23.09;51.11;98510.53;7315140;19;129027;-34
2023/10/22 04:17:38;;;;;;;42.13;2.33;;;;;;;23.15;50.38;98514.25;7315302;19;130430;-34
2023/10/22 04:20:04;;;;;;;86.20;4.17;;;;;;;23.08;51.95;98502.84;7312496;19;128970;-35
2023/10/22 04:22:30;;;;;;;97.23;4.80;;;;;;;23.18;52.78;98521.78;7313893;19;129258;-35
2023/10/22 04:24:56;;;;;;;30.03;1.67;;;;;;;23.10;52.76;98521.84;7314780;19;130091;-35
2023/10/22 04:27:21;;;;;;;25.90;1.58;;;;;;;23.07;53.76;98527.44;7314942;19;130910;-35
2023/10/22 04:29:48;;;;;;;72.35;3.55;;;;;;;22.92;53.99;98510.81;7313691;19;130125;-35
2023/10/22 04:32:13;;;;;;;47.72;2.55;;;;;;;23.04;53.94;98535.63;7316508;19;129319;-35
2023/10/22 04:34:39;;;;;;;50.37;3.00;;;;;;;23.01;54.81;98533.34;7313409;19;129434;-34
2023/10/22 04:37:06;;;;;;;38.83;2.20;;;;;;;22.97;55.15;98532.88;7312910;19;130435;-35
2023/10/22 04:39:31;;;;;;;72.30;3.67;;;;;;;22.98;54.80;98538.94;7312259;19;129795;-35
2023/10/22 04:41:56;;;;;;;31.93;1.83;;;;;;;22.97;55.07;98538.13;7311693;19;129620;-35
2023/10/22 04:44:22;;;;;;;29.83;1.67;;;;;;;22.99;55.09;98532.72;7311418;19;129691;-36
2023/10/22 04:46:49;;;;;;;22.47;1.37;;;;;;;22.98;55.57;98536.31;7313985;19;130362;-35
2023/10/22 04:49:14;;;;;;;71.28;3.80;;;;;;;22.97;54.90;98537.34;7312927;19;130063;-35
2023/10/22 04:51:40;;;;;;;110.47;6.33;;;;;;;22.98;55.30;98525.84;7301894;19;129458;-33
2023/10/22 04:54:05;;;;;;;52.57;2.90;;;;;;;22.87;52.80;98528.88;7313304;19;130520;-35
2023/10/22 04:56:31;;;;;;;102.77;5.47;;;;;;;22.98;51.92;98528.47;7311454;19;129351;-34
2023/10/22 04:58:57;;;;;;;88.72;4.57;;;;;;;23.08;51.27;98535.13;7315293;19;128919;-35
2023/10/22 05:01:22;;;;;;;31.77;1.92;;;;;;;23.12;50.66;98523.28;7313215;19;129631;-36
2023/10/22 05:03:48;;;;;;;78.10;4.50;;;;;;;23.08;51.70;98508.06;7301005;19;130698;-35
2023/10/22 05:06:13;;;;;;;103.37;5.47;;;;;;;23.16;52.64;98539.47;7305766;19;130383;-36
2023/10/22 05:08:39;;;;;;;126.73;6.90;;;;;;;23.09;53.18;98535.91;7304185;19;131031;-36
2023/10/22 05:11:05;;;;;;;84.00;4.90;;;;;;;23.06;53.33;98541.50;7294995;19;130066;-36
2023/10/22 05:13:32;;;;;;;77.20;4.38;;;;;;;23.04;53.90;98541.69;7298405;19;130590;-36
2023/10/22 05:15:57;;;;;;;112.65;5.68;;;;;;;23.03;54.43;98536.63;7304538;19;130298;-36
2023/10/22 05:18:25;;;;;;;83.60;4.77;;;;;;;23.02;54.12;98545.50;7305385;19;130474;-37
2023/10/22 05:20:51;;;;;;;32.17;1.75;;;;;;;22.99;54.66;98535.34;7303717;19;131241;-32
2023/10/22 05:23:16;;;;;;;142.00;7.67;;;;;;;23.00;55.08;98545.66;7308199;19;129897;-35
2023/10/22 05:25:41;;;;;;;130.90;6.63;;;;;;;22.84;54.65;98521.38;7304026;19;129639;-33
2023/10/22 05:28:07;;;;;;;68.77;3.80;;;;;;;22.99;55.23;98545.84;7302605;19;129407;-37
2023/10/22 05:30:32;;;;;;;61.63;3.53;;;;;;;22.82;55.04;98518.09;7302530;19;130471;-35
2023/10/22 05:32:58;;;;;;;89.60;5.00;;;;;;;22.97;54.89;98538.13;7301635;19;130947;-35
2023/10/22 05:35:23;;;;;;;76.83;3.77;;;;;;;22.97;55.15;98543.38;7309463;19;129805;-35
2023/10/22 05:37:49;;;;;;;81.65;4.70;;;;;;;22.90;54.80;98536.38;7297429;19;130535;-37
2023/10/22 05:40:15;;;;;;;43.97;2.57;;;;;;;22.92;52.59;98540.44;7300851;19;130201;-34
2023/10/22 05:42:41;;;;;;;78.68;4.50;;;;;;;22.99;52.12;98535.34;7301992;19;129419;-32
2023/10/22 05:45:07;;;;;;;104.00;5.37;;;;;;;22.91;51.03;98517.03;7308501;19;130384;-37
2023/10/22 05:47:33;;;;;;;110.83;6.03;;;;;;;23.10;51.29;98537.56;7306323;19;129314;-36
2023/10/22 05:49:59;;;;;;;69.40;3.83;;;;;;;23.17;51.81;98533.25;7303166;19;129641;-35
2023/10/22 05:52:26;;;;;;;39.23;2.03;;;;;;;23.10;52.50;98537.56;7305263;19;130945;-36
2023/10/22 05:54:52;;;;;;;108.20;5.57;;;;;;;23.07;53.50;98540.53;7303494;19;130323;-36
2023/10/22 05:57:20;;;;;;;57.47;3.37;;;;;;;23.03;54.02;98549.72;7299567;19;129249;-34
2023/10/22 05:59:46;;;;;;;196.35;10.40;;;;;;;23.01;54.05;98554.31;7299036;19;129786;-36
2023/10/22 06:02:12;;;;;;;102.00;5.83;;;;;;;23.00;54.38;98558.78;7302230;19;130953;-36
2023/10/22 06:04:38;;;;;;;116.45;6.10;;;;;;;22.96;54.34;98562.72;7300717;19;132110;-36
2023/10/22 06:07:04;;;;;;;61.97;3.53;;;;;;;22.86;54.84;98550.81;7303560;19;130478;-34
2023/10/22 06:09:29;;;;;;;80.87;4.37;;;;;;;22.95;55.04;98568.13;7297881;19;134373;-34
2023/10/22 06:11:55;;;;;;;88.83;4.87;;;;;;;22.95;54.74;98562.91;7299387;19;132019;-36
2023/10/22 06:14:20;;;;;;;94.57;4.93;;;;;;;22.95;55.43;98568.97;7308829;19;132600;-35
2023/10/22 06:16:46;;;;;;;77.03;4.47;;;;;;;22.96;55.15;98575.81;7298402;19;130850;-35
2023/10/22 06:19:13;;;;;;;79.40;4.60;;;;;;;22.94;55.37;98575.16;7305728;19;129462;-34
2023/10/22 06:21:38;;;;;;;145.57;7.88;;;;;;;22.95;55.41;98568.97;7303560;19;129997;-35
2023/10/22 06:24:04;;;;;;;57.87;2.97;;;;;;;22.84;52.64;98573.78;7296385;19;130282;-36
2023/10/22 06:26:29;;;;;;;43.13;2.23;;;;;;;22.95;51.74;98573.38;7310951;19;129266;-35
2023/10/22 06:28:55;;;;;;;112.43;7.03;;;;;;;23.03;51.47;98583.81;7297926;19;131569;-36
2023/10/22 06:31:20;;;;;;;83.77;4.27;;;;;;;23.05;51.20;98579.22;7304127;19;129419;-36
2023/10/22 06:33:46;;;;;;;226.77;12.40;;;;;;;23.19;52.44;98584.53;7297910;19;130356;-35
2023/10/22 06:36:15;;;;;;;53.13;3.30;;;;;;;23.11;52.05;98581.13;7301333;19;131288;-35
2023/10/22 06:38:42;;;;;;;88.70;4.93;;;;;;;22.89;52.54;98569.63;7294468;19;130308;-37
2023/10/22 06:41:20;;;;;;;74.75;4.00;;;;;;;23.02;54.71;98597.91;7295218;19;130433;-34
2023/10/22 06:43:45;;;;;;;297.02;16.05;;;;;;;23.00;53.74;98590.22;7294304;19;129894;-35
2023/10/22 06:46:11;;;;;;;80.83;4.57;;;;;;;22.98;54.66;98594.00;7302784;19;129803;-35
2023/10/22 06:48:37;;;;;;;72.07;4.18;;;;;;;22.97;54.17;98597.63;7302105;19;131082;-37
2023/10/22 06:51:03;;;;;;;76.80;4.20;;;;;;;22.98;54.41;98601.84;7295904;19;130938;-35
2023/10/22 06:53:30;;;;;;;101.40;5.13;;;;;;;22.97;54.72;98598.41;7301825;19;130452;-36
2023/10/22 06:55:56;;;;;;;61.10;3.40;;;;;;;22.95;55.24;98602.22;7301406;19;129943;-36
2023/10/22 06:58:21;;;;;;;110.97;6.37;;;;;;;22.95;55.01;98607.44;7296935;19;131033;-34
2023/10/22 07:00:47;;;;;;;106.20;5.80;;;;;;;22.81;54.95;98584.59;7293624;19;130680;-35
2023/10/22 07:03:12;;;;;;;85.30;4.53;;;;;;;22.93;55.25;98609.44;7301501;19;131063;-37
2023/10/22 07:05:37;;;;;;;79.13;4.13;;;;;;;22.93;55.44;98612.03;7298560;19;129217;-34
2023/10/22 07:08:03;;;;;;;50.13;2.65;;;;;;;22.86;54.53;98605.84;7298701;19;130509;-35
2023/10/22 07:10:29;;;;;;;190.23;10.10;;;;;;;22.87;52.54;98604.88;7298460;19;129975;-35
2023/10/22 07:12:54;;;;;;;116.33;6.00;;;;;;;22.96;51.96;98609.06;7288492;19;129881;-36
2023/10/22 07:15:19;;;;;;;127.13;6.90;;;;;;;23.04;51.32;98609.84;7292152;19;131819;-35
2023/10/22 07:17:46;;;;;;;36.60;2.20;;;;;;;23.09;51.12;98606.69;7302203;19;130203;-33
2023/10/22 07:20:12;;;;;;;64.18;3.28;;;;;;;23.14;52.18;98622.72;7305870;19;130081;-36
2023/10/22 07:22:38;;;;;;;82.95;4.28;;;;;;;23.06;52.60;98607.06;7306997;19;130591;-37
2023/10/22 07:25:03;;;;;;;14.18;0.93;;;;;;;23.02;53.86;98613.66;7307800;19;129242;-37
2023/10/22 07:27:29;;;;;;;191.10;10.57;;;;;;;23.01;53.22;98614.63;7307509;19;130136;-34
2023/10/22 07:29:54;;;;;;;59.73;3.03;;;;;;;22.99;54.17;98621.88;7311596;19;130217;-35
2023/10/22 07:32:19;;;;;;;49.35;2.50;;;;;;;22.94;54.55;98616.31;7317077;19;130347;-36
2023/10/22 07:34:45;;;;;;;108.93;5.67;;;;;;;22.97;54.70;98621.22;7311180;19;131936;-35
2023/10/22 07:37:11;;;;;;;34.37;1.87;;;;;;;22.94;54.30;98618.94;7311971;19;130233;-36
2023/10/22 07:39:37;;;;;;;87.55;4.40;;;;;;;22.93;54.55;98630.41;7313387;19;132332;-35
2023/10/22 07:42:02;;;;;;;39.63;2.17;;;;;;;22.92;54.60;98629.56;7309005;19;129719;-36
2023/10/22 07:44:28;;;;;;;153.53;8.13;;;;;;;22.89;55.65;98640.41;7309812;19;129212;-35
2023/10/22 07:46:53;;;;;;;98.17;5.33;;;;;;;22.86;55.55;98632.06;7307357;19;129654;-36
2023/10/22 07:49:20;;;;;;;81.70;3.97;;;;;;;22.89;54.92;98635.16;7314214;19;132248;-35
2023/10/22 07:51:45;;;;;;;71.50;3.78;;;;;;;22.90;55.51;98634.19;7311102;19;131358;-33
2023/10/22 07:54:12;;;;;;;25.40;1.60;;;;;;;22.66;52.71;98608.06;7308857;19;130117;-35
2023/10/22 07:56:37;;;;;;;59.60;3.10;;;;;;;22.89;52.26;98636.97;7312043;19;128843;-36
2023/10/22 07:59:03;;;;;;;140.15;7.32;;;;;;;22.95;51.37;98628.44;7312365;19;129637;-34
2023/10/22 08:01:28;;;;;;;31.87;1.67;;;;;;;23.03;51.21;98636.25;7312921;19;129201;-33
2023/10/22 08:03:53;;;;;;;33.72;1.83;;;;;;;23.02;51.59;98629.38;7314828;19;129172;-36
2023/10/22 08:06:19;;;;;;;77.13;3.67;;;;;;;23.05;52.82;98634.28;7315092;19;128828;-36
2023/10/22 08:08:44;;;;;;;33.90;1.93;;;;;;;22.89;53.14;98623.88;7315748;19;129456;-35
2023/10/22 08:11:09;;;;;;;35.83;2.07;;;;;;;22.97;53.88;98631.69;7312324;19;130702;-36
2023/10/22 08:13:35;;;;;;;66.90;3.90;;;;;;;22.97;54.09;98631.69;7314724;19;132310;-35
2023/10/22 08:16:05;;;;;;;52.40;2.65;;;;;;;22.93;54.62;98633.00;7313240;19;129988;-33
2023/10/22 08:18:30;;;;;;;55.78;2.88;;;;;;;22.93;54.76;98635.63;7314573;19;130211;-36
2023/10/22 08:21:06;;;;;;;51.77;3.00;;;;;;;22.82;55.75;98623.75;7313965;19;130914;-36
2023/10/22 08:23:32;;;;;;;36.03;1.98;;;;;;;22.90;54.99;98652.53;7315907;19;130607;-34
2023/10/22 08:25:58;;;;;;;47.47;2.60;;;;;;;22.91;54.96;98642.84;7315625;19;128951;-36
2023/10/22 08:28:23;;;;;;;55.37;3.00;;;;;;;22.89;55.22;98650.09;7314666;19;130160;-36
2023/10/22 08:30:50;;;;;;;40.47;2.50;;;;;;;22.78;55.11;98632.09;7314232;19;130402;-35
2023/10/22 08:33:15;;;;;;;30.35;1.67;;;;;;;22.89;55.68;98647.47;7315019;19;128843;-34
2023/10/22 08:35:41;;;;;;;40.33;2.13;;;;;;;22.88;54.94;98654.50;7314722;19;129713;-35
2023/10/22 08:38:07;;;;;;;54.43;2.67;;;;;;;22.77;52.90;98656.69;7313426;19;129933;-36
2023/10/22 08:40:41;;;;;;;37.10;2.00;;;;;;;22.85;52.54;98660.09;7311543;19;129786;-36
2023/10/22 08:43:15;;;;;;;29.70;1.65;;;;;;;22.94;51.65;98660.88;7315343;19;129186;-35
2023/10/22 08:45:41;;;;;;;62.83;3.42;;;;;;;23.01;51.18;98667.03;7313854;19;129146;-35
2023/10/22 08:48:08;;;;;;;55.13;2.80;;;;;;;22.95;51.39;98644.16;7315651;19;130234;-36
2023/10/22 08:50:35;;;;;;;22.17;1.30;;;;;;;23.07;52.04;98663.75;7312269;19;129717;-36
2023/10/22 08:53:00;;;;;;;39.20;2.30;;;;;;;23.01;52.95;98659.19;7312464;19;128860;-35
2023/10/22 08:55:28;;;;;;;57.50;2.97;;;;;;;22.94;53.36;98660.88;7315020;19;129119;-34
2023/10/22 08:57:54;;;;;;;78.75;3.90;;;;;;;22.94;54.15;98660.88;7311859;19;129757;-34
2023/10/22 09:00:21;;;;;;;31.30;1.80;;;;;;;22.93;54.45;98661.84;7312745;19;129488;-35
2023/10/22 09:02:48;;;;;;;24.42;1.52;;;;;;;22.90;54.73;98659.56;7314571;19;129281;-33
2023/10/22 09:05:13;;;;;;;37.40;2.03;;;;;;;22.88;54.67;98658.91;7311631;19;128796;-36
2023/10/22 09:07:52;;;;;;;53.87;2.93;;;;;;;22.86;56.10;98663.50;7313831;19;129110;-35
2023/10/22 09:10:31;;;;;;;142.25;7.43;;;;;;;22.85;56.05;98652.22;7302239;19;130228;-36
2023/10/22 09:13:17;;;;;;;134.65;7.28;;;;;;;22.86;56.21;98655.66;7296181;19;130315;-35
2023/10/22 09:15:47;;;;;;;121.68;6.60;;;;;;;22.84;55.95;98658.44;7298373;19;129691;-36
2023/10/22 09:18:14;;;;;;;98.03;5.70;;;;;;;22.84;55.23;98657.63;7297970;19;131615;-34
2023/10/22 09:20:41;;;;;;;50.17;2.55;;;;;;;22.83;55.28;98651.56;7312270;19;129176;-35
2023/10/22 09:23:21;;;;;;;54.10;2.67;;;;;;;22.79;55.81;98641.63;7309181;19;130542;-35
2023/10/22 09:25:47;;;;;;;107.03;5.30;;;;;;;22.77;52.90;98654.06;7312825;19;128986;-35
2023/10/22 09:28:28;;;;;;;34.58;1.85;;;;;;;22.89;52.00;98660.56;7314652;19;129173;-36
2023/10/22 09:30:55;;;;;;;55.58;3.03;;;;;;;22.96;51.33;98653.63;7311829;19;129151;-35
2023/10/22 09:33:29;;;;;;;;;;;;;;;22.97;51.39;98657.91;7314899;19;129815;-35
2023/10/22 09:36:01;;;;;;;65.28;3.38;;;;;;;23.04;52.21;98661.47;7310147;19;128881;-34
2023/10/22 09:38:39;;;;;;;37.30;2.03;;;;;;;22.97;53.44;98655.28;7313163;19;129976;-35
2023/10/22 09:41:04;;;;;;;100.85;4.88;;;;;;;22.94;52.90;98658.25;7309555;19;132478;-35
2023/10/22 09:43:30;;;;;;;32.87;1.73;;;;;;;22.93;53.48;98661.84;7313310;19;128946;-36
2023/10/22 09:45:56;;;;;;;38.72;2.13;;;;;;;22.92;54.32;98662.84;7310000;19;130536;-34
2023/10/22 09:48:26;;;;;;;36.88;2.10;;;;;;;22.80;54.75;98651.91;7312953;19;132179;-35
2023/10/22 09:50:53;;;;;;;80.47;3.88;;;;;;;22.89;54.35;98665.81;7309641;19;130341;-34
2023/10/22 09:53:25;;;;;;;46.85;2.47;;;;;;;22.87;55.22;98658.09;7312619;19;128826;-34
2023/10/22 09:55:53;;;;;;;39.63;2.15;;;;;;;22.87;55.27;98662.53;7314555;19;128928;-34
2023/10/22 09:58:23;;;;;;;38.33;2.17;;;;;;;22.88;54.92;98669.41;7309668;19;130178;-36
2023/10/22 10:00:48;;;;;;;70.82;3.60;;;;;;;22.87;54.78;98668.56;7310619;19;130106;-35
2023/10/22 10:03:16;;;;;;;60.53;2.90;;;;;;;22.86;55.30;98671.38;7314669;19;129673;-34
2023/10/22 10:05:42;;;;;;;28.50;1.63;;;;;;;22.84;55.56;98674.16;7312221;19;129238;-36
2023/10/22 10:08:08;;;;;;;37.63;2.17;;;;;;;22.72;52.63;98664.22;7312973;19;129715;-34
2023/10/22 10:10:33;;;;;;;55.27;2.63;;;;;;;22.84;52.09;98673.38;7309633;19;129980;-34
2023/10/22 10:12:59;;;;;;;52.90;2.63;;;;;;;22.91;51.98;98663.81;7309545;19;129569;-35
2023/10/22 10:15:35;;;;;;;14.50;0.93;;;;;;;22.98;51.23;98668.22;7312246;19;129175;-35
2023/10/22 10:18:01;;;;;;;44.58;2.15;;;;;;;23.02;51.75;98660.84;7308076;19;130104;-35
2023/10/22 10:20:32;;;;;;;43.57;2.47;;;;;;;23.00;52.38;98662.81;7311437;19;129617;-35
2023/10/22 10:23:02;;;;;;;77.13;3.75;;;;;;;22.94;53.11;98663.50;7312586;19;129226;-34
2023/10/22 10:25:32;;;;;;;46.83;2.33;;;;;;;22.91;53.43;98653.34;7309320;19;129184;-36
2023/10/22 10:28:05;;;;;;;40.83;2.28;;;;;;;22.90;54.80;98649.09;7311644;19;130143;-34
2023/10/22 10:30:31;;;;;;;29.42;1.73;;;;;;;22.91;54.54;98651.53;7310743;19;131075;-35
2023/10/22 10:32:57;;;;;;;76.57;4.00;;;;;;;22.76;54.13;98634.06;7307044;19;129898;-35
2023/10/22 10:35:24;;;;;;;41.13;2.00;;;;;;;22.87;54.79;98657.28;7312179;19;130040;-35
2023/10/22 10:38:14;;;;;;;18.73;1.15;;;;;;;22.86;55.96;98650.41;7312077;19;129873;-37
2023/10/22 10:40:57;;;;;;;30.20;1.65;;;;;;;22.87;55.60;98658.09;7309060;19;131243;-38
2023/10/22 10:44:00;;;;;;;38.15;2.08;;;;;;;22.87;55.74;98652.84;7311926;19;129037;-38
2023/10/22 10:46:27;;;;;;;52.75;2.78;;;;;;;22.88;55.23;98641.41;7311771;19;130215;-37
2023/10/22 10:48:52;;;;;;;70.70;4.18;;;;;;;22.87;55.48;98642.38;7304744;19;131923;-37
2023/10/22 10:51:24;;;;;;;27.77;1.47;;;;;;;22.84;55.13;98647.16;7309746;19;129559;-37
2023/10/22 10:54:02;;;;;;;74.25;3.70;;;;;;;22.79;52.70;98665.19;7310438;19;129613;-38
2023/10/22 10:56:49;;;;;;;71.28;3.22;;;;;;;22.86;51.30;98645.16;7311580;19;128986;-38
2023/10/22 10:59:35;;;;;;;60.80;2.87;;;;;;;22.95;50.96;98652.84;7309273;19;130360;-37
2023/10/22 11:02:13;;;;;;;93.47;4.40;;;;;;;23.06;51.54;98651.63;7304432;19;130926;-38
2023/10/22 11:04:45;;;;;;;46.33;2.28;;;;;;;22.99;52.42;98655.94;7311004;19;129484;-36
2023/10/22 11:07:11;;;;;;;48.88;2.50;;;;;;;22.93;53.01;98651.34;7311399;19;130712;-37
2023/10/22 11:09:38;;;;;;;31.40;1.70;;;;;;;22.91;53.79;98658.56;7309742;19;129443;-37
2023/10/22 11:12:05;;;;;;;63.25;3.28;;;;;;;22.88;54.18;98658.91;7298869;19;130573;-37
2023/10/22 11:14:35;;;;;;;124.97;6.55;;;;;;;22.87;54.27;98657.28;7297208;19;130598;-39
2023/10/22 11:17:01;;;;;;;91.68;5.13;;;;;;;22.85;54.45;98651.41;7296134;19;130403;-38